Time;durP1;ratioP1;P1;durP2;ratioP2;P2;SDS_P1;SDS_P2;PMS_P1;PMS_P2;Temp;Humidity;BMP_temperature;BMP_pressure;BME280_temperature;BME280_humidity;BME280_pressure;Samples;Min_cycle;Max_cycle;Signal;HPM_P1;HPM_P2
2022/11/15 00:01:17;;;;;;;;;;;17.20;92.10;;;;;;5094341;28;19939;-40
2022/11/15 00:03:43;;;;;;;;;;;17.20;92.10;;;;;;5094000;28;19991;-40
2022/11/15 00:06:08;;;;;;;;;;;17.20;92.10;;;;;;5075904;28;19954;-40
2022/11/15 00:08:34;;;;;;;;;;;17.10;92.10;;;;;;5093972;28;19969;-40
2022/11/15 00:11:00;;;;;;;;;;;17.10;92.10;;;;;;5094201;28;19912;-40
2022/11/15 00:13:26;;;;;;;;;;;17.10;92.10;;;;;;5094136;28;20238;-42
2022/11/15 00:15:52;;;;;;;;;;;17.10;92.20;;;;;;5094209;28;19911;-41
2022/11/15 00:18:18;;;;;;;;;;;17.10;92.20;;;;;;5094087;28;19919;-41
2022/11/15 00:20:43;;;;;;;;;;;17.00;92.20;;;;;;5094081;28;19904;-40
2022/11/15 00:23:09;;;;;;;;;;;17.00;92.30;;;;;;5094133;28;20289;-40
2022/11/15 00:25:35;;;;;;;;;;;17.00;92.30;;;;;;5093738;28;19904;-40
2022/11/15 00:28:00;;;;;;;;;;;17.00;92.30;;;;;;5094149;28;19911;-40
2022/11/15 00:30:26;;;;;;;;;;;16.90;92.30;;;;;;5094063;28;19911;-40
2022/11/15 00:32:52;;;;;;;;;;;16.90;92.30;;;;;;5094124;28;19913;-41
2022/11/15 00:35:18;;;;;;;;;;;16.90;92.30;;;;;;5094055;28;19911;-40
2022/11/15 00:37:43;;;;;;;;;;;16.90;92.30;;;;;;5093859;28;19912;-40
2022/11/15 00:40:09;;;;;;;;;;;16.90;92.40;;;;;;5093671;28;19904;-40
2022/11/15 00:42:35;;;;;;;;;;;16.90;92.30;;;;;;5093810;28;19957;-40
2022/11/15 00:45:00;;;;;;;;;;;16.90;92.40;;;;;;5093954;28;19999;-40
2022/11/15 00:47:26;;;;;;;;;;;16.90;92.40;;;;;;5093829;28;19911;-40
2022/11/15 00:49:51;;;;;;;;;;;16.80;92.30;;;;;;5075710;28;20254;-40
2022/11/15 00:52:17;;;;;;;;;;;16.80;92.40;;;;;;5093550;28;19947;-40
2022/11/15 00:54:42;;;;;;;;;;;16.80;92.40;;;;;;5075760;28;19911;-40
2022/11/15 00:57:08;;;;;;;;;;;16.80;92.40;;;;;;5093409;28;19986;-40
2022/11/15 00:59:33;;;;;;;;;;;16.80;92.40;;;;;;5093461;28;19904;-40
2022/11/15 01:01:59;;;;;;;;;;;16.80;92.40;;;;;;5093730;28;19948;-40
2022/11/15 01:04:24;;;;;;;;;;;16.80;92.40;;;;;;5093392;28;20270;-40
2022/11/15 01:06:49;;;;;;;;;;;16.70;92.40;;;;;;5094015;28;19904;-40
2022/11/15 01:09:15;;;;;;;;;;;16.70;92.50;;;;;;5093775;28;20296;-40
2022/11/15 01:11:42;;;;;;;;;;;16.70;92.50;;;;;;5092609;28;21389;-41
2022/11/15 01:14:08;;;;;;;;;;;16.70;92.50;;;;;;5093642;28;19959;-40
2022/11/15 01:16:33;;;;;;;;;;;16.70;92.50;;;;;;5093318;28;20396;-40
2022/11/15 01:18:59;;;;;;;;;;;16.70;92.50;;;;;;5096439;28;19915;-40
2022/11/15 01:21:25;;;;;;;;;;;16.70;92.50;;;;;;5097349;28;20263;-40
2022/11/15 01:23:54;;;;;;;;;;;16.70;92.50;;;;;;5097074;28;19905;-40
2022/11/15 01:26:20;;;;;;;;;;;16.70;92.50;;;;;;5096819;28;20366;-40
2022/11/15 01:28:45;;;;;;;;;;;16.60;92.50;;;;;;5097039;28;19904;-40
2022/11/15 01:31:12;;;;;;;;;;;16.60;92.40;;;;;;5097095;28;19954;-40
2022/11/15 01:33:38;;;;;;;;;;;16.60;92.50;;;;;;5097012;28;19957;-40
2022/11/15 01:36:04;;;;;;;;;;;16.60;92.50;;;;;;5096694;28;19904;-40
2022/11/15 01:38:30;;;;;;;;;;;16.60;92.50;;;;;;5096842;28;19908;-40
2022/11/15 01:40:55;;;;;;;;;;;16.60;92.50;;;;;;5078747;28;19915;-40
2022/11/15 01:43:22;;;;;;;;;;;16.60;92.50;;;;;;5097122;28;19915;-40
2022/11/15 01:46:10;;;;;;;;;;;16.50;92.50;;;;;;5097289;28;19943;-40
2022/11/15 01:48:36;;;;;;;;;;;16.50;92.40;;;;;;5096345;28;19904;-40
2022/11/15 01:51:04;;;;;;;;;;;16.50;92.50;;;;;;5096748;28;19905;-40
2022/11/15 01:53:31;;;;;;;;;;;16.50;92.50;;;;;;5096373;28;19904;-40
2022/11/15 01:55:57;;;;;;;;;;;16.50;92.50;;;;;;5096544;28;20335;-40
2022/11/15 01:58:22;;;;;;;;;;;16.50;92.50;;;;;;5078356;28;19981;-40
2022/11/15 02:00:49;;;;;;;;;;;16.40;92.50;;;;;;5091096;28;19916;-40
2022/11/15 02:03:15;;;;;;;;;;;16.40;92.60;;;;;;5085172;28;20003;-40
2022/11/15 02:05:40;;;;;;;;;;;16.40;92.60;;;;;;5096312;28;19950;-41
2022/11/15 02:08:06;;;;;;;;;;;16.40;92.60;;;;;;5095921;28;19920;-40
2022/11/15 02:10:32;;;;;;;;;;;16.40;92.60;;;;;;5095788;28;19975;-40
2022/11/15 02:13:00;;;;;;;;;;;16.40;92.70;;;;;;5096250;28;20270;-40
2022/11/15 02:15:27;;;;;;;;;;;16.40;92.70;;;;;;5096111;28;19908;-40
2022/11/15 02:17:58;;;;;;;;;;;16.30;92.60;;;;;;5093894;28;20289;-40
2022/11/15 02:20:40;;;;;;;;;;;16.40;92.70;;;;;;5077907;28;19923;-40
2022/11/15 02:23:21;;;;;;;;;;;16.30;92.90;;;;;;5095980;28;19915;-41
2022/11/15 02:26:21;;;;;;;;;;;16.30;92.70;;;;;;5095629;28;19962;-40
2022/11/15 02:29:05;;;;;;;;;;;16.30;92.70;;;;;;4993883;28;19910;-40
2022/11/15 02:31:31;;;;;;;;;;;16.30;92.80;;;;;;5072754;28;19941;-41
2022/11/15 02:34:11;;;;;;;;;;;16.30;92.80;;;;;;5093257;28;19908;-41
2022/11/15 02:36:43;;;;;;;;;;;16.30;92.80;;;;;;5085247;28;19912;-40
2022/11/15 02:39:15;;;;;;;;;;;16.20;92.80;;;;;;5095617;28;19913;-40
2022/11/15 02:41:59;;;;;;;;;;;16.20;92.80;;;;;;5095360;28;20277;-40
2022/11/15 02:44:33;;;;;;;;;;;16.20;92.90;;;;;;5095700;28;19999;-41
2022/11/15 02:47:13;;;;;;;;;;;16.20;92.90;;;;;;5093121;28;19908;-41
2022/11/15 02:49:41;;;;;;;;;;;16.10;92.90;;;;;;5084123;28;19915;-40
2022/11/15 02:52:06;;;;;;;;;;;16.10;93.00;;;;;;5095495;28;19904;-40
2022/11/15 02:54:33;;;;;;;;;;;16.20;93.00;;;;;;5095306;28;19904;-40
2022/11/15 02:57:01;;;;;;;;;;;16.10;93.00;;;;;;5095435;28;19904;-40
2022/11/15 02:59:44;;;;;;;;;;;16.10;93.00;;;;;;5093594;28;19916;-41
2022/11/15 03:02:12;;;;;;;;;;;16.10;93.10;;;;;;5106033;28;19904;-40
2022/11/15 03:05:01;;;;;;;;;;;16.00;93.10;;;;;;5088974;28;19936;-40
2022/11/15 03:07:33;;;;;;;;;;;16.00;93.10;;;;;;5069773;28;19908;-40
2022/11/15 03:10:06;;;;;;;;;;;16.00;93.20;;;;;;5091603;28;19908;-41
2022/11/15 03:12:36;;;;;;;;;;;16.00;93.20;;;;;;5094964;28;19938;-41
2022/11/15 03:15:06;;;;;;;;;;;16.00;93.20;;;;;;5076627;28;19912;-41
2022/11/15 03:17:40;;;;;;;;;;;15.90;93.30;;;;;;5092410;28;19923;-41
2022/11/15 03:20:07;;;;;;;;;;;15.90;93.30;;;;;;5092807;28;20008;-42
2022/11/15 03:22:34;;;;;;;;;;;15.90;93.30;;;;;;5092775;28;19915;-41
2022/11/15 03:25:01;;;;;;;;;;;15.90;93.30;;;;;;5092688;28;19908;-43
2022/11/15 03:27:30;;;;;;;;;;;15.80;93.30;;;;;;5092676;28;19908;-41
2022/11/15 03:29:58;;;;;;;;;;;15.80;93.40;;;;;;5092298;28;19908;-43
2022/11/15 03:32:26;;;;;;;;;;;15.80;93.40;;;;;;5093782;28;20016;-40
2022/11/15 03:35:11;;;;;;;;;;;15.80;93.50;;;;;;5094624;28;19934;-40
2022/11/15 03:37:45;;;;;;;;;;;15.70;93.50;;;;;;5093972;28;19919;-40
2022/11/15 03:40:11;;;;;;;;;;;15.70;93.60;;;;;;5094111;28;19915;-41
2022/11/15 03:42:57;;;;;;;;;;;15.70;93.60;;;;;;5094070;28;19961;-40
2022/11/15 03:45:25;;;;;;;;;;;15.70;93.60;;;;;;5093875;28;20351;-40
2022/11/15 03:47:58;;;;;;;;;;;15.60;93.60;;;;;;5094151;28;19912;-40
2022/11/15 03:50:24;;;;;;;;;;;15.60;93.70;;;;;;5094382;28;19912;-40
2022/11/15 03:52:50;;;;;;;;;;;15.60;93.70;;;;;;5094084;28;19916;-40
2022/11/15 03:55:18;;;;;;;;;;;15.60;93.80;;;;;;5094078;28;19908;-40
2022/11/15 03:57:43;;;;;;;;;;;15.50;93.70;;;;;;5094258;28;19955;-40
2022/11/15 04:00:09;;;;;;;;;;;15.60;93.80;;;;;;5094222;28;20291;-40
2022/11/15 04:02:35;;;;;;;;;;;15.50;93.80;;;;;;5094111;28;19908;-40
2022/11/15 04:05:00;;;;;;;;;;;15.50;93.80;;;;;;5093917;28;20362;-40
2022/11/15 04:07:26;;;;;;;;;;;15.50;93.90;;;;;;5093998;28;19999;-40
2022/11/15 04:10:03;;;;;;;;;;;15.50;93.90;;;;;;5093841;28;19909;-40
2022/11/15 04:12:32;;;;;;;;;;;15.40;93.90;;;;;;5093905;28;20369;-41
2022/11/15 04:15:08;;;;;;;;;;;15.40;94.00;;;;;;5093999;28;19930;-40
2022/11/15 04:17:35;;;;;;;;;;;15.40;94.00;;;;;;5093730;28;20433;-40
2022/11/15 04:25:29;;;;;;;;;;;15.40;94.00;;;;;;5093789;28;19957;-40
2022/11/15 04:27:54;;;;;;;;;;;15.40;94.00;;;;;;5093692;28;19909;-40
2022/11/15 04:30:20;;;;;;;;;;;15.30;94.10;;;;;;5093698;28;19908;-40
2022/11/15 04:32:45;;;;;;;;;;;15.30;94.10;;;;;;5093576;28;19915;-40
2022/11/15 04:35:11;;;;;;;;;;;15.30;94.10;;;;;;5093530;28;19919;-41
2022/11/15 04:37:37;;;;;;;;;;;15.30;94.10;;;;;;5093942;28;19912;-40
2022/11/15 04:40:02;;;;;;;;;;;15.30;94.20;;;;;;5093842;28;20361;-40
2022/11/15 04:42:28;;;;;;;;;;;15.30;94.20;;;;;;5093678;28;19934;-40
2022/11/15 04:44:53;;;;;;;;;;;15.30;94.20;;;;;;5093489;28;19934;-40
2022/11/15 04:47:18;;;;;;;;;;;15.30;94.20;;;;;;5093468;28;19908;-40
2022/11/15 04:49:44;;;;;;;;;;;15.30;94.20;;;;;;5093777;28;20342;-40
2022/11/15 04:52:09;;;;;;;;;;;15.20;94.20;;;;;;5075748;28;19952;-40
2022/11/15 04:54:35;;;;;;;;;;;15.30;94.20;;;;;;5097659;28;19915;-41
2022/11/15 04:57:00;;;;;;;;;;;15.20;94.20;;;;;;5097590;28;20332;-40
2022/11/15 04:59:26;;;;;;;;;;;15.20;94.30;;;;;;5097446;28;19986;-41
2022/11/15 05:01:51;;;;;;;;;;;15.20;94.30;;;;;;5097460;28;19923;-40
2022/11/15 05:04:19;;;;;;;;;;;15.20;94.30;;;;;;5097392;28;19908;-40
2022/11/15 05:06:49;;;;;;;;;;;15.20;94.30;;;;;;5079153;28;20377;-41
2022/11/15 05:09:15;;;;;;;;;;;15.20;94.30;;;;;;5097025;28;19919;-40
2022/11/15 05:11:41;;;;;;;;;;;15.20;94.30;;;;;;5097160;28;19908;-41
2022/11/15 05:14:06;;;;;;;;;;;15.20;94.30;;;;;;5097197;28;19930;-40
2022/11/15 05:16:32;;;;;;;;;;;15.20;94.30;;;;;;5096997;28;19908;-40
2022/11/15 05:18:57;;;;;;;;;;;15.20;94.30;;;;;;5097054;28;19912;-40
2022/11/15 05:21:23;;;;;;;;;;;15.10;94.30;;;;;;5097112;28;19919;-40
2022/11/15 05:23:48;;;;;;;;;;;15.10;94.30;;;;;;5097137;28;20012;-40
2022/11/15 05:26:17;;;;;;;;;;;15.10;94.40;;;;;;5096751;28;20275;-40
2022/11/15 05:28:42;;;;;;;;;;;15.10;94.40;;;;;;5096892;28;19916;-40
2022/11/15 05:31:09;;;;;;;;;;;15.10;94.40;;;;;;5096966;28;19908;-40
2022/11/15 05:33:38;;;;;;;;;;;15.10;94.40;;;;;;5096579;28;19908;-40
2022/11/15 05:36:19;;;;;;;;;;;15.10;94.40;;;;;;5096742;28;19920;-40
2022/11/15 05:38:45;;;;;;;;;;;15.10;94.40;;;;;;5096546;28;19912;-39
2022/11/15 05:41:11;;;;;;;;;;;15.10;94.40;;;;;;5096615;28;19935;-39
2022/11/15 05:43:38;;;;;;;;;;;15.10;94.40;;;;;;5096497;28;20359;-40
2022/11/15 05:46:04;;;;;;;;;;;15.00;94.40;;;;;;5096306;28;20010;-40
2022/11/15 05:48:29;;;;;;;;;;;15.00;94.40;;;;;;5096259;28;20342;-40
2022/11/15 05:50:55;;;;;;;;;;;15.00;94.40;;;;;;5096471;28;19908;-40
2022/11/15 05:53:22;;;;;;;;;;;15.10;94.50;;;;;;5078306;28;20255;-40
2022/11/15 05:55:48;;;;;;;;;;;15.00;94.40;;;;;;5096012;28;20019;-40
2022/11/15 05:58:14;;;;;;;;;;;15.00;94.40;;;;;;5096177;28;20007;-40
2022/11/15 06:00:39;;;;;;;;;;;15.10;94.50;;;;;;5093081;28;19924;-40
2022/11/15 06:03:05;;;;;;;;;;;15.00;94.50;;;;;;5093054;28;19964;-41
2022/11/15 06:05:30;;;;;;;;;;;15.00;94.50;;;;;;5096104;28;20394;-40
2022/11/15 06:07:59;;;;;;;;;;;15.00;94.50;;;;;;5095642;28;19965;-40
2022/11/15 06:10:24;;;;;;;;;;;15.00;94.50;;;;;;5095842;28;19938;-39
2022/11/15 06:13:03;;;;;;;;;;;15.00;94.50;;;;;;5096689;28;19913;-40
2022/11/15 06:15:28;;;;;;;;;;;15.00;94.40;;;;;;5095868;28;19961;-38
2022/11/15 06:17:57;;;;;;;;;;;15.00;94.60;;;;;;5095837;28;20301;-38
2022/11/15 06:20:23;;;;;;;;;;;15.00;94.40;;;;;;5080860;28;19915;-39
2022/11/15 06:22:49;;;;;;;;;;;15.00;94.30;;;;;;5091940;28;19912;-38
2022/11/15 06:25:14;;;;;;;;;;;15.00;94.50;;;;;;5107626;28;19934;-38
2022/11/15 06:27:40;;;;;;;;;;;15.00;94.60;;;;;;5092603;28;19913;-38
2022/11/15 06:30:05;;;;;;;;;;;15.00;94.60;;;;;;5095584;28;20003;-38
2022/11/15 06:32:31;;;;;;;;;;;15.00;94.60;;;;;;5094024;28;19952;-40
2022/11/15 06:34:56;;;;;;;;;;;15.00;94.40;;;;;;5095093;28;19991;-38
2022/11/15 06:37:22;;;;;;;;;;;15.00;94.40;;;;;;5095482;28;19915;-39
2022/11/15 06:39:47;;;;;;;;;;;15.00;94.40;;;;;;5095148;28;19974;-38
2022/11/15 06:42:13;;;;;;;;;;;15.00;94.50;;;;;;5095381;28;19909;-39
2022/11/15 06:44:38;;;;;;;;;;;15.00;94.50;;;;;;5094941;28;19908;-39
2022/11/15 06:47:03;;;;;;;;;;;14.90;94.50;;;;;;5095351;28;19908;-39
2022/11/15 06:49:29;;;;;;;;;;;14.90;94.50;;;;;;5077028;28;19908;-39
2022/11/15 06:51:54;;;;;;;;;;;14.90;94.50;;;;;;5094978;28;19916;-39
2022/11/15 06:54:20;;;;;;;;;;;14.90;94.40;;;;;;5076784;28;19908;-39
2022/11/15 06:56:46;;;;;;;;;;;14.90;94.40;;;;;;5094473;28;20406;-39
2022/11/15 06:59:11;;;;;;;;;;;14.90;94.40;;;;;;5094956;28;20019;-39
2022/11/15 07:01:37;;;;;;;;;;;14.90;94.50;;;;;;5094550;28;20354;-40
2022/11/15 07:04:02;;;;;;;;;;;14.90;94.40;;;;;;5094892;28;19915;-39
2022/11/15 07:06:28;;;;;;;;;;;14.90;94.40;;;;;;5094517;28;19987;-39
2022/11/15 07:08:53;;;;;;;;;;;14.90;94.40;;;;;;5094108;28;20483;-39
2022/11/15 07:11:19;;;;;;;;;;;14.90;94.40;;;;;;5094789;28;19956;-39
2022/11/15 07:13:44;;;;;;;;;;;14.90;94.30;;;;;;5094291;28;19908;-39
2022/11/15 07:16:10;;;;;;;;;;;14.90;94.30;;;;;;5093372;28;19915;-39
2022/11/15 07:18:37;;;;;;;;;;;14.90;94.20;;;;;;5094428;28;19919;-39
2022/11/15 07:21:12;;;;;;;;;;;14.90;94.30;;;;;;5094927;28;20247;-38
2022/11/15 07:23:38;;;;;;;;;;;14.90;94.10;;;;;;5094676;28;20006;-39
2022/11/15 07:26:04;;;;;;;;;;;14.90;94.20;;;;;;5076262;28;20347;-38
2022/11/15 07:28:29;;;;;;;;;;;14.90;94.20;;;;;;5094317;28;19999;-39
2022/11/15 07:30:55;;;;;;;;;;;15.00;94.10;;;;;;5094300;28;19994;-39
2022/11/15 07:33:20;;;;;;;;;;;15.00;94.00;;;;;;5094197;28;19908;-39
2022/11/15 07:35:49;;;;;;;;;;;15.10;94.00;;;;;;5094439;28;20244;-39
2022/11/15 07:38:15;;;;;;;;;;;15.20;94.00;;;;;;5093966;28;20416;-38
2022/11/15 07:40:40;;;;;;;;;;;15.30;94.00;;;;;;5094365;28;19912;-38
2022/11/15 07:43:07;;;;;;;;;;;15.40;94.00;;;;;;5094053;28;19953;-39
2022/11/15 07:45:35;;;;;;;;;;;15.50;93.90;;;;;;5076339;28;19999;-39
2022/11/15 07:48:01;;;;;;;;;;;15.60;93.90;;;;;;5075892;28;19908;-39
2022/11/15 07:50:27;;;;;;;;;;;15.70;93.80;;;;;;5094176;28;20240;-39
2022/11/15 07:52:56;;;;;;;;;;;15.80;93.60;;;;;;5093901;28;19909;-39
2022/11/15 07:55:23;;;;;;;;;;;15.90;93.40;;;;;;5076341;28;20399;-39
2022/11/15 07:57:48;;;;;;;;;;;16.00;93.20;;;;;;5094024;28;20018;-39
2022/11/15 08:00:14;;;;;;;;;;;16.10;93.10;;;;;;5094148;28;19962;-39
2022/11/15 08:02:39;;;;;;;;;;;16.10;92.90;;;;;;5093952;28;19912;-39
2022/11/15 08:05:05;;;;;;;;;;;16.20;92.80;;;;;;5075921;28;20338;-39
2022/11/15 08:07:31;;;;;;;;;;;16.20;92.70;;;;;;5093817;28;20001;-39
2022/11/15 08:09:57;;;;;;;;;;;16.30;92.70;;;;;;5094383;28;19912;-39
2022/11/15 08:12:22;;;;;;;;;;;16.30;92.60;;;;;;5093895;28;20351;-39
2022/11/15 08:14:48;;;;;;;;;;;16.30;92.60;;;;;;5075750;28;20318;-39
2022/11/15 08:17:13;;;;;;;;;;;16.30;92.50;;;;;;5093768;28;20329;-39
2022/11/15 08:19:39;;;;;;;;;;;16.40;92.50;;;;;;5093897;28;19916;-39
2022/11/15 08:22:04;;;;;;;;;;;16.40;92.80;;;;;;5093735;28;19908;-40
2022/11/15 08:24:30;;;;;;;;;;;16.40;92.50;;;;;;5075660;28;19912;-40
2022/11/15 08:26:55;;;;;;;;;;;16.40;92.50;;;;;;5095307;28;19909;-40
2022/11/15 08:29:21;;;;;;;;;;;16.40;92.50;;;;;;5097969;28;19912;-39
2022/11/15 08:31:46;;;;;;;;;;;16.40;92.50;;;;;;5097939;28;19914;-39
2022/11/15 08:34:11;;;;;;;;;;;16.40;92.50;;;;;;5097876;28;20232;-40
2022/11/15 08:36:37;;;;;;;;;;;16.40;92.50;;;;;;5097935;28;20351;-40
2022/11/15 08:39:02;;;;;;;;;;;16.30;92.50;;;;;;5079581;28;19912;-39
2022/11/15 08:41:30;;;;;;;;;;;16.30;92.50;;;;;;5097806;28;19965;-39
2022/11/15 08:43:56;;;;;;;;;;;16.30;92.50;;;;;;5097556;28;19908;-40
2022/11/15 08:46:21;;;;;;;;;;;16.30;92.60;;;;;;5097676;28;20416;-40
2022/11/15 08:48:47;;;;;;;;;;;16.30;92.60;;;;;;5097830;28;19965;-39
2022/11/15 08:51:12;;;;;;;;;;;16.30;92.60;;;;;;5097268;28;19908;-40
2022/11/15 08:53:38;;;;;;;;;;;16.30;92.60;;;;;;5097593;28;19908;-40
2022/11/15 08:56:07;;;;;;;;;;;16.30;92.60;;;;;;5097311;28;19908;-40
2022/11/15 08:58:32;;;;;;;;;;;16.30;92.60;;;;;;5096829;28;19946;-40
2022/11/15 09:00:57;;;;;;;;;;;16.30;92.50;;;;;;5096744;28;20240;-40
2022/11/15 09:03:23;;;;;;;;;;;16.30;92.50;;;;;;5097170;28;19946;-39
2022/11/15 09:05:48;;;;;;;;;;;16.30;92.50;;;;;;5096933;28;19908;-40
2022/11/15 09:08:14;;;;;;;;;;;16.30;92.50;;;;;;5097140;28;20384;-39
2022/11/15 09:10:39;;;;;;;;;;;16.30;92.50;;;;;;5097201;28;20052;-40
2022/11/15 09:13:05;;;;;;;;;;;16.30;92.50;;;;;;5097260;28;19914;-40
2022/11/15 09:15:30;;;;;;;;;;;16.20;92.40;;;;;;5097271;28;19920;-40
2022/11/15 09:17:59;;;;;;;;;;;16.20;92.40;;;;;;5096882;28;19987;-40
2022/11/15 09:20:25;;;;;;;;;;;16.30;92.50;;;;;;5097056;28;19952;-40
2022/11/15 09:22:50;;;;;;;;;;;16.30;92.40;;;;;;5096543;28;19916;-40
2022/11/15 09:25:15;;;;;;;;;;;16.30;92.40;;;;;;5096993;28;20389;-40
2022/11/15 09:27:41;;;;;;;;;;;16.30;92.40;;;;;;5096454;28;19947;-40
2022/11/15 09:30:07;;;;;;;;;;;16.30;92.40;;;;;;5096850;28;19998;-40
2022/11/15 09:32:32;;;;;;;;;;;16.30;92.40;;;;;;5096974;28;20342;-39
2022/11/15 09:34:58;;;;;;;;;;;16.30;92.40;;;;;;5078581;28;19912;-40
2022/11/15 09:37:23;;;;;;;;;;;16.30;92.40;;;;;;5096521;28;19915;-40
2022/11/15 09:39:49;;;;;;;;;;;16.40;92.40;;;;;;5077810;28;20416;-40
2022/11/15 09:42:20;;;;;;;;;;;16.40;92.40;;;;;;5096554;28;19908;-40
2022/11/15 09:45:03;;;;;;;;;;;16.40;92.40;;;;;;5096509;28;19953;-40
2022/11/15 09:47:32;;;;;;;;;;;16.40;92.40;;;;;;5095932;28;20354;-40
2022/11/15 09:49:59;;;;;;;;;;;16.40;92.40;;;;;;5096318;28;20002;-40
2022/11/15 09:52:24;;;;;;;;;;;16.40;92.40;;;;;;5096123;28;20263;-40
2022/11/15 09:54:51;;;;;;;;;;;16.40;92.40;;;;;;5096182;28;19915;-40
2022/11/15 09:57:35;;;;;;;;;;;16.40;92.40;;;;;;5096514;28;19915;-40
2022/11/15 10:00:13;;;;;;;;;;;16.40;92.30;;;;;;5096182;28;19923;-40
2022/11/15 10:02:50;;;;;;;;;;;16.40;92.60;;;;;;5095875;28;20270;-41
2022/11/15 10:05:18;;;;;;;;;;;16.30;92.30;;;;;;5096074;28;20002;-40
2022/11/15 10:07:43;;;;;;;;;;;16.40;92.30;;;;;;5095338;28;20011;-40
2022/11/15 10:10:16;;;;;;;;;;;16.40;92.30;;;;;;5095997;28;20319;-40
2022/11/15 10:12:45;;;;;;;;;;;16.40;92.30;;;;;;5095741;28;19958;-40
2022/11/15 10:15:13;;;;;;;;;;;16.40;92.30;;;;;;5095671;28;19952;-40
2022/11/15 10:17:57;;;;;;;;;;;16.40;92.30;;;;;;5095480;28;20003;-40
2022/11/15 10:20:22;;;;;;;;;;;16.40;92.30;;;;;;5095703;28;19951;-39
2022/11/15 10:22:50;;;;;;;;;;;16.40;92.30;;;;;;5095258;28;19977;-40
2022/11/15 10:25:25;;;;;;;;;;;16.30;92.30;;;;;;5095439;28;20286;-40
2022/11/15 10:27:56;;;;;;;;;;;16.30;92.50;;;;;;5095854;28;19913;-40
2022/11/15 10:30:22;;;;;;;;;;;16.30;92.30;;;;;;5095799;28;19919;-40
2022/11/15 10:32:49;;;;;;;;;;;16.30;92.30;;;;;;5095544;28;19908;-40
2022/11/15 10:35:19;;;;;;;;;;;16.30;92.30;;;;;;5095789;28;20355;-40
2022/11/15 10:37:44;;;;;;;;;;;16.30;92.30;;;;;;5095178;28;19970;-40
2022/11/15 10:40:21;;;;;;;;;;;16.30;92.30;;;;;;5077379;28;19912;-40
2022/11/15 10:42:46;;;;;;;;;;;16.30;92.30;;;;;;5095651;28;19912;-40
2022/11/15 10:45:26;;;;;;;;;;;16.30;92.30;;;;;;5095166;28;20396;-40
2022/11/15 10:47:51;;;;;;;;;;;16.30;92.30;;;;;;5095548;28;19912;-39
2022/11/15 10:50:30;;;;;;;;;;;16.30;92.30;;;;;;5093878;28;19908;-40
2022/11/15 10:52:56;;;;;;;;;;;16.30;92.30;;;;;;5095296;28;20287;-40
2022/11/15 10:55:24;;;;;;;;;;;16.30;92.30;;;;;;5094793;28;19912;-40
2022/11/15 10:57:52;;;;;;;;;;;16.30;92.30;;;;;;5094907;28;19931;-40
2022/11/15 11:00:20;;;;;;;;;;;16.40;92.30;;;;;;5094869;28;20425;-39
2022/11/15 11:02:51;;;;;;;;;;;16.40;92.30;;;;;;5094805;28;19999;-40
2022/11/15 11:05:32;;;;;;;;;;;16.30;92.20;;;;;;5095128;28;20332;-40
2022/11/15 11:07:59;;;;;;;;;;;16.40;92.30;;;;;;5094525;28;20088;-40
2022/11/15 11:10:24;;;;;;;;;;;16.30;92.20;;;;;;5094699;28;20375;-39
2022/11/15 11:12:50;;;;;;;;;;;16.30;92.20;;;;;;5094800;28;19913;-40
2022/11/15 11:15:16;;;;;;;;;;;16.30;92.20;;;;;;5094836;28;19909;-39
2022/11/15 11:17:48;;;;;;;;;;;16.30;92.20;;;;;;5076410;28;20323;-40
2022/11/15 11:20:13;;;;;;;;;;;16.30;92.20;;;;;;5094568;28;19912;-40
2022/11/15 11:22:45;;;;;;;;;;;16.30;92.20;;;;;;5094531;28;19995;-39
2022/11/15 11:25:39;;;;;;;;;;;16.30;92.20;;;;;;5094523;28;19908;-41
2022/11/15 11:28:05;;;;;;;;;;;16.30;92.20;;;;;;5072452;28;20427;-40
2022/11/15 11:30:33;;;;;;;;;;;16.30;92.20;;;;;;5094943;28;19908;-39
2022/11/15 11:33:04;;;;;;;;;;;16.30;92.20;;;;;;5094291;28;19914;-40
2022/11/15 11:35:35;;;;;;;;;;;16.30;92.20;;;;;;5094539;28;19915;-40
2022/11/15 11:38:21;;;;;;;;;;;16.30;92.20;;;;;;5094401;28;19923;-40
2022/11/15 11:41:19;;;;;;;;;;;16.30;92.20;;;;;;5094285;28;20362;-40
2022/11/15 11:44:11;;;;;;;;;;;16.30;92.20;;;;;;5038356;28;19908;-40
2022/11/15 11:46:54;;;;;;;;;;;16.30;92.20;;;;;;5055371;28;19908;-39
2022/11/15 11:49:23;;;;;;;;;;;16.30;92.20;;;;;;5094164;28;19908;-40
2022/11/15 11:52:03;;;;;;;;;;;16.30;92.20;;;;;;5094272;28;19933;-40
2022/11/15 11:54:42;;;;;;;;;;;16.30;92.20;;;;;;5094136;28;20049;-40
2022/11/15 11:57:17;;;;;;;;;;;16.30;92.30;;;;;;5094304;28;19908;-40
2022/11/15 11:59:47;;;;;;;;;;;16.30;92.30;;;;;;5094100;28;20072;-40
2022/11/15 12:02:29;;;;;;;;;;;16.30;92.20;;;;;;5093906;28;19912;-40
2022/11/15 12:05:01;;;;;;;;;;;16.30;92.20;;;;;;5094016;28;19914;-40
2022/11/15 12:07:31;;;;;;;;;;;16.30;92.20;;;;;;5094067;28;19943;-40
2022/11/15 12:10:15;;;;;;;;;;;16.30;92.20;;;;;;5076039;28;19908;-40
2022/11/15 12:12:50;;;;;;;;;;;16.30;92.20;;;;;;5093654;28;20056;-39
2022/11/15 12:15:18;;;;;;;;;;;16.30;92.20;;;;;;5093985;28;20266;-40
2022/11/15 12:17:44;;;;;;;;;;;16.30;92.20;;;;;;5093484;28;19914;-40
2022/11/15 12:20:18;;;;;;;;;;;16.30;92.20;;;;;;5093391;28;20405;-39
2022/11/15 12:22:52;;;;;;;;;;;16.30;92.20;;;;;;5093632;28;19908;-39
2022/11/15 12:25:41;;;;;;;;;;;16.30;92.20;;;;;;5093463;28;19916;-39
2022/11/15 12:28:35;;;;;;;;;;;16.30;92.20;;;;;;5092904;28;19908;-39
2022/11/15 12:31:03;;;;;;;;;;;16.30;92.20;;;;;;5071360;28;19943;-39
2022/11/15 12:33:30;;;;;;;;;;;16.30;92.20;;;;;;5093468;28;19915;-39
2022/11/15 12:35:59;;;;;;;;;;;16.30;92.20;;;;;;5093531;28;19982;-39
2022/11/15 12:38:44;;;;;;;;;;;16.30;92.20;;;;;;5093469;28;19995;-39
2022/11/15 12:41:17;;;;;;;;;;;16.30;92.20;;;;;;5093616;28;19912;-39
2022/11/15 12:43:43;;;;;;;;;;;16.30;92.20;;;;;;5093997;28;19915;-41
2022/11/15 12:46:27;;;;;;;;;;;16.30;92.20;;;;;;5093407;28;19908;-39
2022/11/15 12:48:54;;;;;;;;;;;16.30;92.20;;;;;;5093337;28;19908;-39
2022/11/15 12:51:20;;;;;;;;;;;16.30;92.30;;;;;;5093354;28;20317;-39
2022/11/15 12:53:45;;;;;;;;;;;16.30;92.20;;;;;;5093501;28;19908;-39
2022/11/15 12:56:17;;;;;;;;;;;16.30;92.30;;;;;;5093802;28;20295;-39
2022/11/15 12:58:50;;;;;;;;;;;16.30;92.30;;;;;;5093261;28;19912;-40
2022/11/15 13:01:37;;;;;;;;;;;16.30;92.30;;;;;;5092934;28;19922;-39
2022/11/15 13:04:23;;;;;;;;;;;16.30;92.20;;;;;;5093329;28;20193;-39
2022/11/15 13:06:51;;;;;;;;;;;16.30;92.20;;;;;;5093422;28;19909;-39
2022/11/15 13:09:42;;;;;;;;;;;16.30;92.20;;;;;;5093351;28;19920;-39
2022/11/15 13:12:12;;;;;;;;;;;16.30;92.20;;;;;;5088051;28;20386;-39
2022/11/15 13:14:43;;;;;;;;;;;16.30;92.20;;;;;;5095768;28;19912;-39
2022/11/15 13:17:29;;;;;;;;;;;16.40;92.20;;;;;;5096919;28;19991;-39
2022/11/15 13:19:58;;;;;;;;;;;16.40;92.20;;;;;;5096717;28;19916;-39
2022/11/15 13:25:27;;;;;;;;;;;16.30;92.10;;;;;;5096819;28;19958;-39
2022/11/15 13:27:54;;;;;;;;;;;16.30;92.10;;;;;;5096807;28;20007;-39
2022/11/15 13:30:22;;;;;;;;;;;16.30;92.10;;;;;;5096717;28;19985;-40
2022/11/15 13:32:48;;;;;;;;;;;16.30;92.10;;;;;;5096442;28;19915;-39
2022/11/15 13:35:21;;;;;;;;;;;16.30;92.10;;;;;;5096324;28;19908;-40
2022/11/15 13:37:47;;;;;;;;;;;16.30;92.10;;;;;;5096161;28;19954;-39
2022/11/15 13:40:24;;;;;;;;;;;16.30;92.10;;;;;;5078386;28;19916;-39
2022/11/15 13:42:50;;;;;;;;;;;16.30;92.10;;;;;;5096218;28;19909;-39
2022/11/15 13:45:16;;;;;;;;;;;16.30;92.10;;;;;;5096156;28;19908;-39
2022/11/15 13:47:42;;;;;;;;;;;16.30;92.10;;;;;;5096034;28;20340;-40
2022/11/15 13:50:11;;;;;;;;;;;16.30;92.10;;;;;;5096765;28;19916;-40
2022/11/15 13:52:39;;;;;;;;;;;16.30;92.20;;;;;;5096266;28;20266;-39
2022/11/15 13:55:09;;;;;;;;;;;16.30;92.20;;;;;;5095939;28;19908;-40
2022/11/15 13:57:35;;;;;;;;;;;16.30;92.20;;;;;;5096058;28;19959;-40
2022/11/15 14:00:02;;;;;;;;;;;16.30;92.20;;;;;;5095878;28;19963;-40
2022/11/15 14:02:30;;;;;;;;;;;16.30;92.20;;;;;;5096138;28;19908;-40
2022/11/15 14:04:56;;;;;;;;;;;16.30;92.20;;;;;;5095788;28;19908;-40
2022/11/15 14:07:23;;;;;;;;;;;16.30;92.20;;;;;;5095689;28;20371;-40
2022/11/15 14:09:49;;;;;;;;;;;16.30;92.20;;;;;;5096060;28;19935;-40
2022/11/15 14:12:25;;;;;;;;;;;16.30;92.20;;;;;;5096003;28;20456;-41
2022/11/15 14:14:51;;;;;;;;;;;16.30;92.20;;;;;;5095935;28;20309;-40
2022/11/15 14:17:23;;;;;;;;;;;16.30;92.20;;;;;;5095801;28;19915;-40
2022/11/15 14:19:49;;;;;;;;;;;16.40;92.20;;;;;;5095727;28;19934;-40
2022/11/15 14:22:21;;;;;;;;;;;16.40;92.40;;;;;;5095783;28;20266;-40
2022/11/15 14:25:05;;;;;;;;;;;16.40;92.10;;;;;;5095257;28;20041;-40
2022/11/15 14:27:31;;;;;;;;;;;16.40;92.10;;;;;;5095995;28;20376;-40
2022/11/15 14:29:56;;;;;;;;;;;16.40;92.10;;;;;;5095647;28;20007;-40
2022/11/15 14:32:26;;;;;;;;;;;16.30;92.10;;;;;;5095629;28;20287;-40
2022/11/15 14:34:56;;;;;;;;;;;16.40;92.10;;;;;;5095303;28;19918;-40